sensor_id;sensor_type;location;lat;lon;timestamp;temperature;humidity
7704;DHT22;3894;49.700;10.770;2022-11-20T00:02:20;0.90;99.90
7704;DHT22;3894;49.700;10.770;2022-11-20T00:04:45;0.90;99.90
7704;DHT22;3894;49.700;10.770;2022-11-20T00:07:11;1.00;99.90
7704;DHT22;3894;49.700;10.770;2022-11-20T00:09:36;1.00;99.90
7704;DHT22;3894;49.700;10.770;2022-11-20T00:12:02;1.00;99.90
7704;DHT22;3894;49.700;10.770;2022-11-20T00:14:27;1.00;99.90
7704;DHT22;3894;49.700;10.770;2022-11-20T00:16:53;1.00;99.90
7704;DHT22;3894;49.700;10.770;2022-11-20T00:19:18;1.00;99.90
7704;DHT22;3894;49.700;10.770;2022-11-20T00:21:44;1.00;99.90
7704;DHT22;3894;49.700;10.770;2022-11-20T00:24:09;1.00;99.90
7704;DHT22;3894;49.700;10.770;2022-11-20T00:26:38;1.00;99.90
7704;DHT22;3894;49.700;10.770;2022-11-20T00:29:03;1.00;99.90
7704;DHT22;3894;49.700;10.770;2022-11-20T00:31:30;1.00;99.90
7704;DHT22;3894;49.700;10.770;2022-11-20T00:33:56;1.00;99.90
7704;DHT22;3894;49.700;10.770;2022-11-20T00:36:27;1.00;99.90
7704;DHT22;3894;49.700;10.770;2022-11-20T00:38:54;1.00;99.90
7704;DHT22;3894;49.700;10.770;2022-11-20T00:41:20;1.00;99.90
7704;DHT22;3894;49.700;10.770;2022-11-20T00:43:46;1.00;99.90
7704;DHT22;3894;49.700;10.770;2022-11-20T00:46:17;0.90;99.90
7704;DHT22;3894;49.700;10.770;2022-11-20T00:48:43;0.90;99.90
7704;DHT22;3894;49.700;10.770;2022-11-20T00:51:12;0.90;99.90
7704;DHT22;3894;49.700;10.770;2022-11-20T00:53:38;1.00;99.90
7704;DHT22;3894;49.700;10.770;2022-11-20T00:56:06;1.00;99.90
7704;DHT22;3894;49.700;10.770;2022-11-20T00:58:37;1.00;99.90
7704;DHT22;3894;49.700;10.770;2022-11-20T01:01:04;0.90;99.90
7704;DHT22;3894;49.700;10.770;2022-11-20T01:03:34;0.90;99.90
7704;DHT22;3894;49.700;10.770;2022-11-20T01:06:05;0.90;99.90
7704;DHT22;3894;49.700;10.770;2022-11-20T01:08:32;0.80;99.90
7704;DHT22;3894;49.700;10.770;2022-11-20T01:11:03;0.90;99.90
7704;DHT22;3894;49.700;10.770;2022-11-20T01:13:30;0.90;99.90
7704;DHT22;3894;49.700;10.770;2022-11-20T01:18:37;1.00;99.90
7704;DHT22;3894;49.700;10.770;2022-11-20T01:21:15;1.10;99.90
7704;DHT22;3894;49.700;10.770;2022-11-20T01:23:42;1.10;99.90
7704;DHT22;3894;49.700;10.770;2022-11-20T01:26:13;1.10;99.90
7704;DHT22;3894;49.700;10.770;2022-11-20T01:28:40;1.10;99.90
7704;DHT22;3894;49.700;10.770;2022-11-20T01:31:16;1.00;99.90
7704;DHT22;3894;49.700;10.770;2022-11-20T01:33:42;1.10;99.90
7704;DHT22;3894;49.700;10.770;2022-11-20T01:36:09;1.10;99.90
7704;DHT22;3894;49.700;10.770;2022-11-20T01:38:35;1.10;99.90
7704;DHT22;3894;49.700;10.770;2022-11-20T01:41:01;1.00;99.90
7704;DHT22;3894;49.700;10.770;2022-11-20T01:43:26;1.00;99.90
7704;DHT22;3894;49.700;10.770;2022-11-20T01:48:32;1.10;99.90
7704;DHT22;3894;49.700;10.770;2022-11-20T01:51:00;1.10;99.90
7704;DHT22;3894;49.700;10.770;2022-11-20T01:53:30;1.10;99.90
7704;DHT22;3894;49.700;10.770;2022-11-20T01:55:59;1.10;99.90
7704;DHT22;3894;49.700;10.770;2022-11-20T01:58:30;1.10;99.90
7704;DHT22;3894;49.700;10.770;2022-11-20T02:00:57;1.10;99.90
7704;DHT22;3894;49.700;10.770;2022-11-20T02:03:23;1.00;99.90
7704;DHT22;3894;49.700;10.770;2022-11-20T02:08:26;1.00;99.90
7704;DHT22;3894;49.700;10.770;2022-11-20T02:10:51;1.10;99.90
7704;DHT22;3894;49.700;10.770;2022-11-20T02:13:17;1.10;99.90
7704;DHT22;3894;49.700;10.770;2022-11-20T02:16:02;1.10;99.90
7704;DHT22;3894;49.700;10.770;2022-11-20T02:18:28;1.10;99.90
7704;DHT22;3894;49.700;10.770;2022-11-20T02:21:21;1.00;99.90
7704;DHT22;3894;49.700;10.770;2022-11-20T02:24:01;1.00;99.90
7704;DHT22;3894;49.700;10.770;2022-11-20T02:26:30;1.00;99.90
7704;DHT22;3894;49.700;10.770;2022-11-20T02:28:56;1.00;99.90
7704;DHT22;3894;49.700;10.770;2022-11-20T02:31:22;1.00;99.90
7704;DHT22;3894;49.700;10.770;2022-11-20T02:33:57;1.00;99.90
7704;DHT22;3894;49.700;10.770;2022-11-20T02:36:24;1.00;99.90
7704;DHT22;3894;49.700;10.770;2022-11-20T02:38:51;1.00;99.90
7704;DHT22;3894;49.700;10.770;2022-11-20T02:41:17;1.00;99.90
7704;DHT22;3894;49.700;10.770;2022-11-20T02:43:42;1.00;99.90
7704;DHT22;3894;49.700;10.770;2022-11-20T02:46:08;1.00;99.90
7704;DHT22;3894;49.700;10.770;2022-11-20T02:48:34;1.00;99.90
7704;DHT22;3894;49.700;10.770;2022-11-20T02:50:59;1.00;99.90
7704;DHT22;3894;49.700;10.770;2022-11-20T02:53:25;1.00;99.90
7704;DHT22;3894;49.700;10.770;2022-11-20T02:55:50;1.00;99.90
7704;DHT22;3894;49.700;10.770;2022-11-20T02:58:16;1.00;99.90
7704;DHT22;3894;49.700;10.770;2022-11-20T03:00:42;1.00;99.90
7704;DHT22;3894;49.700;10.770;2022-11-20T03:03:07;1.00;99.90
7704;DHT22;3894;49.700;10.770;2022-11-20T03:05:33;1.00;99.90
7704;DHT22;3894;49.700;10.770;2022-11-20T03:07:58;1.00;99.90
7704;DHT22;3894;49.700;10.770;2022-11-20T03:10:24;1.00;99.90
7704;DHT22;3894;49.700;10.770;2022-11-20T03:12:54;1.00;99.90
7704;DHT22;3894;49.700;10.770;2022-11-20T03:15:21;1.00;99.90
7704;DHT22;3894;49.700;10.770;2022-11-20T03:17:47;1.00;99.90
7704;DHT22;3894;49.700;10.770;2022-11-20T03:20:12;1.00;99.90
7704;DHT22;3894;49.700;10.770;2022-11-20T03:22:38;1.00;99.90
7704;DHT22;3894;49.700;10.770;2022-11-20T03:25:04;1.00;99.90
7704;DHT22;3894;49.700;10.770;2022-11-20T03:27:35;1.00;99.90
7704;DHT22;3894;49.700;10.770;2022-11-20T03:30:01;1.00;99.90
7704;DHT22;3894;49.700;10.770;2022-11-20T03:32:26;1.00;99.90
7704;DHT22;3894;49.700;10.770;2022-11-20T03:34:52;1.00;99.90
7704;DHT22;3894;49.700;10.770;2022-11-20T03:37:17;1.00;99.90
7704;DHT22;3894;49.700;10.770;2022-11-20T03:39:43;1.00;99.90
7704;DHT22;3894;49.700;10.770;2022-11-20T03:42:09;1.00;99.90
7704;DHT22;3894;49.700;10.770;2022-11-20T03:44:54;1.00;99.90
7704;DHT22;3894;49.700;10.770;2022-11-20T03:47:20;1.00;99.90
7704;DHT22;3894;49.700;10.770;2022-11-20T03:49:46;1.00;99.90
7704;DHT22;3894;49.700;10.770;2022-11-20T03:52:11;1.00;99.90
7704;DHT22;3894;49.700;10.770;2022-11-20T03:54:37;0.90;99.90
7704;DHT22;3894;49.700;10.770;2022-11-20T03:57:02;0.90;99.90
7704;DHT22;3894;49.700;10.770;2022-11-20T03:59:28;0.90;99.90
7704;DHT22;3894;49.700;10.770;2022-11-20T04:01:53;1.00;99.90
7704;DHT22;3894;49.700;10.770;2022-11-20T04:04:19;1.00;99.90
7704;DHT22;3894;49.700;10.770;2022-11-20T04:06:44;1.00;99.90
7704;DHT22;3894;49.700;10.770;2022-11-20T04:09:10;1.00;99.90
7704;DHT22;3894;49.700;10.770;2022-11-20T04:11:37;1.00;99.90
7704;DHT22;3894;49.700;10.770;2022-11-20T04:14:06;1.00;99.90
7704;DHT22;3894;49.700;10.770;2022-11-20T04:16:37;1.00;99.90
7704;DHT22;3894;49.700;10.770;2022-11-20T04:19:05;1.00;99.90
7704;DHT22;3894;49.700;10.770;2022-11-20T04:21:31;1.00;99.90
7704;DHT22;3894;49.700;10.770;2022-11-20T04:23:57;1.00;99.90
7704;DHT22;3894;49.700;10.770;2022-11-20T04:26:25;1.00;99.90
7704;DHT22;3894;49.700;10.770;2022-11-20T04:28:51;1.00;99.90
7704;DHT22;3894;49.700;10.770;2022-11-20T04:31:28;1.00;99.90
7704;DHT22;3894;49.700;10.770;2022-11-20T04:33:54;1.00;99.90
7704;DHT22;3894;49.700;10.770;2022-11-20T04:36:22;1.00;99.90
7704;DHT22;3894;49.700;10.770;2022-11-20T04:38:56;1.00;99.90
7704;DHT22;3894;49.700;10.770;2022-11-20T04:41:24;1.00;99.90
7704;DHT22;3894;49.700;10.770;2022-11-20T04:43:51;1.00;99.90
7704;DHT22;3894;49.700;10.770;2022-11-20T04:46:18;1.00;99.90
7704;DHT22;3894;49.700;10.770;2022-11-20T04:48:44;1.00;99.90
7704;DHT22;3894;49.700;10.770;2022-11-20T04:51:10;1.00;99.90
7704;DHT22;3894;49.700;10.770;2022-11-20T04:53:36;1.00;99.90
7704;DHT22;3894;49.700;10.770;2022-11-20T04:56:03;1.00;99.90
7704;DHT22;3894;49.700;10.770;2022-11-20T04:58:29;1.00;99.90
7704;DHT22;3894;49.700;10.770;2022-11-20T05:03:37;1.00;99.90
7704;DHT22;3894;49.700;10.770;2022-11-20T05:06:04;1.00;99.90
7704;DHT22;3894;49.700;10.770;2022-11-20T05:08:31;1.00;99.90
7704;DHT22;3894;49.700;10.770;2022-11-20T05:11:11;1.00;99.90
7704;DHT22;3894;49.700;10.770;2022-11-20T05:13:37;1.00;99.90
7704;DHT22;3894;49.700;10.770;2022-11-20T05:16:08;1.00;99.90
7704;DHT22;3894;49.700;10.770;2022-11-20T05:18:35;1.00;99.90
7704;DHT22;3894;49.700;10.770;2022-11-20T05:21:01;1.00;99.90
7704;DHT22;3894;49.700;10.770;2022-11-20T05:23:27;1.00;99.90
7704;DHT22;3894;49.700;10.770;2022-11-20T05:25:55;1.00;99.90
7704;DHT22;3894;49.700;10.770;2022-11-20T05:28:21;1.00;99.90
7704;DHT22;3894;49.700;10.770;2022-11-20T05:30:47;1.00;99.90
7704;DHT22;3894;49.700;10.770;2022-11-20T05:33:13;1.00;99.90
7704;DHT22;3894;49.700;10.770;2022-11-20T05:35:38;1.00;99.90
7704;DHT22;3894;49.700;10.770;2022-11-20T05:38:04;1.00;99.90
7704;DHT22;3894;49.700;10.770;2022-11-20T05:40:29;1.00;99.90
7704;DHT22;3894;49.700;10.770;2022-11-20T05:42:55;1.00;99.90
7704;DHT22;3894;49.700;10.770;2022-11-20T05:45:20;1.00;99.90
7704;DHT22;3894;49.700;10.770;2022-11-20T05:47:46;1.00;99.90
7704;DHT22;3894;49.700;10.770;2022-11-20T05:50:12;0.90;99.90
7704;DHT22;3894;49.700;10.770;2022-11-20T05:52:38;1.00;99.90
7704;DHT22;3894;49.700;10.770;2022-11-20T05:55:03;1.00;99.90
7704;DHT22;3894;49.700;10.770;2022-11-20T05:57:30;1.00;99.90
7704;DHT22;3894;49.700;10.770;2022-11-20T05:59:56;1.00;99.90
7704;DHT22;3894;49.700;10.770;2022-11-20T06:02:21;1.00;99.90
7704;DHT22;3894;49.700;10.770;2022-11-20T06:04:47;1.00;99.90
7704;DHT22;3894;49.700;10.770;2022-11-20T06:07:12;1.00;99.90
7704;DHT22;3894;49.700;10.770;2022-11-20T06:09:38;1.00;99.90
7704;DHT22;3894;49.700;10.770;2022-11-20T06:12:03;1.00;99.90
7704;DHT22;3894;49.700;10.770;2022-11-20T06:14:29;1.00;99.90
7704;DHT22;3894;49.700;10.770;2022-11-20T06:16:55;1.00;99.90
7704;DHT22;3894;49.700;10.770;2022-11-20T06:19:20;1.00;99.90
7704;DHT22;3894;49.700;10.770;2022-11-20T06:21:48;1.10;99.90
7704;DHT22;3894;49.700;10.770;2022-11-20T06:24:13;1.10;99.90
7704;DHT22;3894;49.700;10.770;2022-11-20T06:26:39;1.10;99.90
7704;DHT22;3894;49.700;10.770;2022-11-20T06:29:05;1.10;99.90
7704;DHT22;3894;49.700;10.770;2022-11-20T06:31:30;1.00;99.90
7704;DHT22;3894;49.700;10.770;2022-11-20T06:34:00;1.00;99.90
7704;DHT22;3894;49.700;10.770;2022-11-20T06:36:26;1.00;99.90
7704;DHT22;3894;49.700;10.770;2022-11-20T06:38:51;1.00;99.90
7704;DHT22;3894;49.700;10.770;2022-11-20T06:41:20;1.00;99.90
7704;DHT22;3894;49.700;10.770;2022-11-20T06:43:46;1.00;99.90
7704;DHT22;3894;49.700;10.770;2022-11-20T06:46:13;1.00;99.90
7704;DHT22;3894;49.700;10.770;2022-11-20T06:48:39;1.00;99.90
7704;DHT22;3894;49.700;10.770;2022-11-20T06:51:06;1.10;99.90
7704;DHT22;3894;49.700;10.770;2022-11-20T06:53:32;1.00;99.90
7704;DHT22;3894;49.700;10.770;2022-11-20T06:55:58;1.10;99.90
7704;DHT22;3894;49.700;10.770;2022-11-20T06:58:27;1.10;99.90
7704;DHT22;3894;49.700;10.770;2022-11-20T07:00:53;1.00;99.90
7704;DHT22;3894;49.700;10.770;2022-11-20T07:03:18;1.10;99.90
7704;DHT22;3894;49.700;10.770;2022-11-20T07:05:44;1.10;99.90
7704;DHT22;3894;49.700;10.770;2022-11-20T07:08:11;1.10;99.90
7704;DHT22;3894;49.700;10.770;2022-11-20T07:10:37;1.20;99.90
7704;DHT22;3894;49.700;10.770;2022-11-20T07:13:02;1.20;99.90
7704;DHT22;3894;49.700;10.770;2022-11-20T07:15:28;1.20;99.90
7704;DHT22;3894;49.700;10.770;2022-11-20T07:17:53;1.20;99.90
7704;DHT22;3894;49.700;10.770;2022-11-20T07:20:19;1.20;99.90
7704;DHT22;3894;49.700;10.770;2022-11-20T07:22:45;1.20;99.90
7704;DHT22;3894;49.700;10.770;2022-11-20T07:25:10;1.20;99.90
7704;DHT22;3894;49.700;10.770;2022-11-20T07:27:36;1.30;99.90
7704;DHT22;3894;49.700;10.770;2022-11-20T07:30:03;1.30;99.90
7704;DHT22;3894;49.700;10.770;2022-11-20T07:32:29;1.20;99.90
7704;DHT22;3894;49.700;10.770;2022-11-20T07:34:54;1.20;99.90
7704;DHT22;3894;49.700;10.770;2022-11-20T07:37:20;1.20;99.90
7704;DHT22;3894;49.700;10.770;2022-11-20T07:39:46;1.20;99.90
7704;DHT22;3894;49.700;10.770;2022-11-20T07:42:11;1.20;99.90
7704;DHT22;3894;49.700;10.770;2022-11-20T07:44:37;1.20;99.90
7704;DHT22;3894;49.700;10.770;2022-11-20T07:47:03;1.20;99.90
7704;DHT22;3894;49.700;10.770;2022-11-20T07:49:29;1.20;99.90
7704;DHT22;3894;49.700;10.770;2022-11-20T07:51:55;1.20;99.90
7704;DHT22;3894;49.700;10.770;2022-11-20T07:54:21;1.20;99.90
7704;DHT22;3894;49.700;10.770;2022-11-20T07:56:48;1.30;99.90
7704;DHT22;3894;49.700;10.770;2022-11-20T07:59:14;1.30;99.90
7704;DHT22;3894;49.700;10.770;2022-11-20T08:01:41;1.30;99.90
7704;DHT22;3894;49.700;10.770;2022-11-20T08:04:07;1.30;99.90
7704;DHT22;3894;49.700;10.770;2022-11-20T08:06:32;1.30;99.90
7704;DHT22;3894;49.700;10.770;2022-11-20T08:08:58;1.40;99.90
7704;DHT22;3894;49.700;10.770;2022-11-20T08:11:24;1.30;99.90
7704;DHT22;3894;49.700;10.770;2022-11-20T08:14:08;1.30;99.90
7704;DHT22;3894;49.700;10.770;2022-11-20T08:16:44;1.40;99.90
7704;DHT22;3894;49.700;10.770;2022-11-20T08:19:09;1.40;99.90
7704;DHT22;3894;49.700;10.770;2022-11-20T08:21:35;1.40;99.90
7704;DHT22;3894;49.700;10.770;2022-11-20T08:24:01;1.40;99.90
7704;DHT22;3894;49.700;10.770;2022-11-20T08:26:26;1.40;99.90
7704;DHT22;3894;49.700;10.770;2022-11-20T08:28:56;1.40;99.90
7704;DHT22;3894;49.700;10.770;2022-11-20T08:31:23;1.40;99.90
7704;DHT22;3894;49.700;10.770;2022-11-20T08:33:49;1.40;99.90
7704;DHT22;3894;49.700;10.770;2022-11-20T08:36:15;1.40;99.90
7704;DHT22;3894;49.700;10.770;2022-11-20T08:38:40;1.40;99.90
7704;DHT22;3894;49.700;10.770;2022-11-20T08:41:06;1.40;99.90
7704;DHT22;3894;49.700;10.770;2022-11-20T08:43:52;1.40;99.90
7704;DHT22;3894;49.700;10.770;2022-11-20T08:46:17;1.40;99.90
7704;DHT22;3894;49.700;10.770;2022-11-20T08:48:44;1.50;99.90
7704;DHT22;3894;49.700;10.770;2022-11-20T08:51:10;1.50;99.90
7704;DHT22;3894;49.700;10.770;2022-11-20T08:53:36;1.50;99.90
7704;DHT22;3894;49.700;10.770;2022-11-20T08:56:01;1.50;99.90
7704;DHT22;3894;49.700;10.770;2022-11-20T08:58:27;1.50;99.90
7704;DHT22;3894;49.700;10.770;2022-11-20T09:00:53;1.50;99.90
7704;DHT22;3894;49.700;10.770;2022-11-20T09:03:19;1.50;99.90
7704;DHT22;3894;49.700;10.770;2022-11-20T09:05:45;1.50;99.90
7704;DHT22;3894;49.700;10.770;2022-11-20T09:08:11;1.40;99.90
7704;DHT22;3894;49.700;10.770;2022-11-20T09:10:36;1.40;99.90
7704;DHT22;3894;49.700;10.770;2022-11-20T09:13:05;1.50;99.90
7704;DHT22;3894;49.700;10.770;2022-11-20T09:15:31;1.50;99.90
7704;DHT22;3894;49.700;10.770;2022-11-20T09:17:59;1.60;99.90
7704;DHT22;3894;49.700;10.770;2022-11-20T09:20:26;1.60;99.90
7704;DHT22;3894;49.700;10.770;2022-11-20T09:22:52;1.60;99.90
7704;DHT22;3894;49.700;10.770;2022-11-20T09:25:17;1.60;99.90
7704;DHT22;3894;49.700;10.770;2022-11-20T09:27:43;1.70;99.90
7704;DHT22;3894;49.700;10.770;2022-11-20T09:30:12;1.70;99.90
7704;DHT22;3894;49.700;10.770;2022-11-20T09:32:42;1.60;99.90
7704;DHT22;3894;49.700;10.770;2022-11-20T09:35:08;1.60;99.90
7704;DHT22;3894;49.700;10.770;2022-11-20T09:37:34;1.60;99.90
7704;DHT22;3894;49.700;10.770;2022-11-20T09:40:00;1.70;99.90
7704;DHT22;3894;49.700;10.770;2022-11-20T09:45:47;1.80;99.90
7704;DHT22;3894;49.700;10.770;2022-11-20T09:48:03;1.90;99.90
7704;DHT22;3894;49.700;10.770;2022-11-20T09:54:03;1.90;99.90
7704;DHT22;3894;49.700;10.770;2022-11-20T09:56:30;1.90;99.90
7704;DHT22;3894;49.700;10.770;2022-11-20T09:58:59;1.90;99.90
7704;DHT22;3894;49.700;10.770;2022-11-20T10:01:31;1.90;99.90
7704;DHT22;3894;49.700;10.770;2022-11-20T10:09:18;1.90;99.90
7704;DHT22;3894;49.700;10.770;2022-11-20T10:12:01;1.90;99.90
7704;DHT22;3894;49.700;10.770;2022-11-20T10:14:52;1.90;99.90
7704;DHT22;3894;49.700;10.770;2022-11-20T10:23:23;1.80;99.90
7704;DHT22;3894;49.700;10.770;2022-11-20T10:25:52;1.90;99.90
7704;DHT22;3894;49.700;10.770;2022-11-20T10:29:40;1.90;99.90
7704;DHT22;3894;49.700;10.770;2022-11-20T10:31:36;1.90;99.90
7704;DHT22;3894;49.700;10.770;2022-11-20T10:34:28;1.90;99.90
7704;DHT22;3894;49.700;10.770;2022-11-20T10:37:02;2.00;99.90
7704;DHT22;3894;49.700;10.770;2022-11-20T10:42:34;2.00;99.90
7704;DHT22;3894;49.700;10.770;2022-11-20T10:47:52;1.90;99.90
7704;DHT22;3894;49.700;10.770;2022-11-20T10:50:21;1.80;99.90
7704;DHT22;3894;49.700;10.770;2022-11-20T10:57:53;1.90;99.90
7704;DHT22;3894;49.700;10.770;2022-11-20T11:00:20;1.80;99.90
7704;DHT22;3894;49.700;10.770;2022-11-20T11:02:48;1.80;99.90
7704;DHT22;3894;49.700;10.770;2022-11-20T11:07:46;1.80;99.90
7704;DHT22;3894;49.700;10.770;2022-11-20T11:10:21;1.90;99.90
7704;DHT22;3894;49.700;10.770;2022-11-20T11:12:48;2.00;99.90
7704;DHT22;3894;49.700;10.770;2022-11-20T11:18:01;2.30;99.90
7704;DHT22;3894;49.700;10.770;2022-11-20T11:20:27;2.40;99.90
7704;DHT22;3894;49.700;10.770;2022-11-20T11:22:55;2.40;99.90
7704;DHT22;3894;49.700;10.770;2022-11-20T11:25:28;2.30;99.90
7704;DHT22;3894;49.700;10.770;2022-11-20T11:27:57;2.30;99.90
7704;DHT22;3894;49.700;10.770;2022-11-20T11:30:23;2.40;99.90
7704;DHT22;3894;49.700;10.770;2022-11-20T11:32:48;2.40;99.90
7704;DHT22;3894;49.700;10.770;2022-11-20T11:37:48;2.50;99.90
7704;DHT22;3894;49.700;10.770;2022-11-20T11:40:17;2.50;99.90
7704;DHT22;3894;49.700;10.770;2022-11-20T11:42:49;2.40;99.90
7704;DHT22;3894;49.700;10.770;2022-11-20T11:45:16;2.40;99.90
7704;DHT22;3894;49.700;10.770;2022-11-20T11:53:01;2.50;99.90
7704;DHT22;3894;49.700;10.770;2022-11-20T11:55:43;2.40;99.90
7704;DHT22;3894;49.700;10.770;2022-11-20T11:58:11;2.50;99.90
7704;DHT22;3894;49.700;10.770;2022-11-20T12:00:45;2.60;99.90
7704;DHT22;3894;49.700;10.770;2022-11-20T12:03:16;2.70;99.90
7704;DHT22;3894;49.700;10.770;2022-11-20T12:05:58;2.80;99.90
7704;DHT22;3894;49.700;10.770;2022-11-20T12:08:53;2.70;99.90
7704;DHT22;3894;49.700;10.770;2022-11-20T12:14:55;2.80;99.90
7704;DHT22;3894;49.700;10.770;2022-11-20T12:17:02;2.80;99.90
7704;DHT22;3894;49.700;10.770;2022-11-20T12:19:33;2.80;99.90
7704;DHT22;3894;49.700;10.770;2022-11-20T12:24:58;2.80;99.90
7704;DHT22;3894;49.700;10.770;2022-11-20T12:30:21;2.80;99.90
7704;DHT22;3894;49.700;10.770;2022-11-20T12:45:02;2.70;99.90
7704;DHT22;3894;49.700;10.770;2022-11-20T12:56:03;2.70;99.90
7704;DHT22;3894;49.700;10.770;2022-11-20T12:58:50;2.80;99.90
7704;DHT22;3894;49.700;10.770;2022-11-20T13:01:40;2.80;99.90
7704;DHT22;3894;49.700;10.770;2022-11-20T13:04:34;2.80;99.90
7704;DHT22;3894;49.700;10.770;2022-11-20T13:07:10;2.70;99.90
7704;DHT22;3894;49.700;10.770;2022-11-20T13:09:42;2.70;99.90
7704;DHT22;3894;49.700;10.770;2022-11-20T13:12:23;2.70;99.90
7704;DHT22;3894;49.700;10.770;2022-11-20T13:15:14;2.70;99.90
7704;DHT22;3894;49.700;10.770;2022-11-20T13:18:01;2.70;99.90
7704;DHT22;3894;49.700;10.770;2022-11-20T13:20:27;2.70;99.90
7704;DHT22;3894;49.700;10.770;2022-11-20T13:22:55;2.70;99.90
7704;DHT22;3894;49.700;10.770;2022-11-20T13:25:33;2.70;99.90
7704;DHT22;3894;49.700;10.770;2022-11-20T13:28:01;2.70;99.90
7704;DHT22;3894;49.700;10.770;2022-11-20T13:30:30;2.70;99.90
7704;DHT22;3894;49.700;10.770;2022-11-20T13:33:08;2.70;99.90
7704;DHT22;3894;49.700;10.770;2022-11-20T13:35:37;2.70;99.90
7704;DHT22;3894;49.700;10.770;2022-11-20T13:38:08;2.60;99.90
7704;DHT22;3894;49.700;10.770;2022-11-20T13:40:36;2.60;99.90
7704;DHT22;3894;49.700;10.770;2022-11-20T13:43:16;2.70;99.90
7704;DHT22;3894;49.700;10.770;2022-11-20T13:45:54;2.70;99.90
7704;DHT22;3894;49.700;10.770;2022-11-20T13:48:22;2.70;99.90
7704;DHT22;3894;49.700;10.770;2022-11-20T13:51:22;2.70;99.90
7704;DHT22;3894;49.700;10.770;2022-11-20T13:54:14;2.70;99.90
7704;DHT22;3894;49.700;10.770;2022-11-20T13:56:59;2.70;99.90
7704;DHT22;3894;49.700;10.770;2022-11-20T14:01:57;2.70;99.90
7704;DHT22;3894;49.700;10.770;2022-11-20T14:04:28;2.70;99.90
7704;DHT22;3894;49.700;10.770;2022-11-20T14:06:56;2.70;99.90
7704;DHT22;3894;49.700;10.770;2022-11-20T14:09:33;2.70;99.90
7704;DHT22;3894;49.700;10.770;2022-11-20T14:12:00;2.70;99.90
7704;DHT22;3894;49.700;10.770;2022-11-20T14:14:27;2.60;99.90
7704;DHT22;3894;49.700;10.770;2022-11-20T14:17:08;2.60;99.90
7704;DHT22;3894;49.700;10.770;2022-11-20T14:19:34;2.60;99.90
7704;DHT22;3894;49.700;10.770;2022-11-20T14:22:19;2.60;99.90
7704;DHT22;3894;49.700;10.770;2022-11-20T14:24:45;2.60;99.90
7704;DHT22;3894;49.700;10.770;2022-11-20T14:27:18;2.60;99.90
7704;DHT22;3894;49.700;10.770;2022-11-20T14:29:45;2.60;99.90
7704;DHT22;3894;49.700;10.770;2022-11-20T14:32:11;2.60;99.90
7704;DHT22;3894;49.700;10.770;2022-11-20T14:34:41;2.60;99.90
7704;DHT22;3894;49.700;10.770;2022-11-20T14:37:17;2.60;99.90
7704;DHT22;3894;49.700;10.770;2022-11-20T14:39:50;2.60;99.90
7704;DHT22;3894;49.700;10.770;2022-11-20T14:42:22;2.70;99.90
7704;DHT22;3894;49.700;10.770;2022-11-20T14:44:49;2.70;99.90
7704;DHT22;3894;49.700;10.770;2022-11-20T14:47:21;2.70;99.90
7704;DHT22;3894;49.700;10.770;2022-11-20T14:49:47;2.70;99.90
7704;DHT22;3894;49.700;10.770;2022-11-20T14:52:24;2.70;99.90
7704;DHT22;3894;49.700;10.770;2022-11-20T14:54:57;2.70;99.90
7704;DHT22;3894;49.700;10.770;2022-11-20T14:57:31;2.70;99.90
7704;DHT22;3894;49.700;10.770;2022-11-20T15:00:19;2.70;99.90
7704;DHT22;3894;49.700;10.770;2022-11-20T15:02:47;2.70;99.90
7704;DHT22;3894;49.700;10.770;2022-11-20T15:05:14;2.70;99.90
7704;DHT22;3894;49.700;10.770;2022-11-20T15:07:42;2.70;99.90
7704;DHT22;3894;49.700;10.770;2022-11-20T15:12:54;2.70;99.90
7704;DHT22;3894;49.700;10.770;2022-11-20T15:15:42;2.70;99.90
7704;DHT22;3894;49.700;10.770;2022-11-20T15:18:14;2.80;99.90
7704;DHT22;3894;49.700;10.770;2022-11-20T15:20:41;2.80;99.90
7704;DHT22;3894;49.700;10.770;2022-11-20T15:23:17;2.80;99.90
7704;DHT22;3894;49.700;10.770;2022-11-20T15:25:44;2.80;99.90
7704;DHT22;3894;49.700;10.770;2022-11-20T15:28:22;2.70;99.90
7704;DHT22;3894;49.700;10.770;2022-11-20T15:30:49;2.70;99.90
7704;DHT22;3894;49.700;10.770;2022-11-20T15:33:16;2.80;99.90
7704;DHT22;3894;49.700;10.770;2022-11-20T15:35:42;2.80;99.90
7704;DHT22;3894;49.700;10.770;2022-11-20T15:38:08;2.80;99.90
7704;DHT22;3894;49.700;10.770;2022-11-20T15:40:33;2.80;99.90
7704;DHT22;3894;49.700;10.770;2022-11-20T15:42:59;2.80;99.90
7704;DHT22;3894;49.700;10.770;2022-11-20T15:45:37;2.80;99.90
7704;DHT22;3894;49.700;10.770;2022-11-20T15:48:05;2.80;99.90
7704;DHT22;3894;49.700;10.770;2022-11-20T15:50:37;2.80;99.90
7704;DHT22;3894;49.700;10.770;2022-11-20T15:53:03;2.80;99.90
7704;DHT22;3894;49.700;10.770;2022-11-20T15:55:30;2.80;99.90
7704;DHT22;3894;49.700;10.770;2022-11-20T15:57:56;2.80;99.90
7704;DHT22;3894;49.700;10.770;2022-11-20T16:00:21;2.80;99.90
7704;DHT22;3894;49.700;10.770;2022-11-20T16:02:47;2.80;99.90
7704;DHT22;3894;49.700;10.770;2022-11-20T16:05:13;2.90;99.90
7704;DHT22;3894;49.700;10.770;2022-11-20T16:07:39;2.90;99.90
7704;DHT22;3894;49.700;10.770;2022-11-20T16:10:05;2.90;99.90
7704;DHT22;3894;49.700;10.770;2022-11-20T16:12:30;2.90;99.90
7704;DHT22;3894;49.700;10.770;2022-11-20T16:15:14;2.90;99.90
7704;DHT22;3894;49.700;10.770;2022-11-20T16:17:58;2.90;99.90
7704;DHT22;3894;49.700;10.770;2022-11-20T16:20:24;2.90;99.90
7704;DHT22;3894;49.700;10.770;2022-11-20T16:22:49;2.90;99.90
7704;DHT22;3894;49.700;10.770;2022-11-20T16:25:15;2.90;99.90
7704;DHT22;3894;49.700;10.770;2022-11-20T16:27:41;2.90;99.90
7704;DHT22;3894;49.700;10.770;2022-11-20T16:30:07;2.90;99.90
7704;DHT22;3894;49.700;10.770;2022-11-20T16:32:33;2.90;99.90
7704;DHT22;3894;49.700;10.770;2022-11-20T16:34:58;3.00;99.90
7704;DHT22;3894;49.700;10.770;2022-11-20T16:37:24;2.90;99.90
7704;DHT22;3894;49.700;10.770;2022-11-20T16:39:49;2.90;99.90
7704;DHT22;3894;49.700;10.770;2022-11-20T16:42:15;2.90;99.90
7704;DHT22;3894;49.700;10.770;2022-11-20T16:44:40;3.00;99.90
7704;DHT22;3894;49.700;10.770;2022-11-20T16:47:06;2.90;99.90
7704;DHT22;3894;49.700;10.770;2022-11-20T16:49:32;3.00;99.90
7704;DHT22;3894;49.700;10.770;2022-11-20T16:51:58;3.00;99.90
7704;DHT22;3894;49.700;10.770;2022-11-20T16:54:23;3.00;99.90
7704;DHT22;3894;49.700;10.770;2022-11-20T16:56:49;2.90;99.90
7704;DHT22;3894;49.700;10.770;2022-11-20T16:59:16;3.00;99.90
7704;DHT22;3894;49.700;10.770;2022-11-20T17:01:42;2.90;99.90
7704;DHT22;3894;49.700;10.770;2022-11-20T17:04:08;2.90;99.90
7704;DHT22;3894;49.700;10.770;2022-11-20T17:06:38;3.00;99.90
7704;DHT22;3894;49.700;10.770;2022-11-20T17:09:05;2.90;99.90
7704;DHT22;3894;49.700;10.770;2022-11-20T17:11:34;2.90;99.90
7704;DHT22;3894;49.700;10.770;2022-11-20T17:14:00;2.90;99.90
7704;DHT22;3894;49.700;10.770;2022-11-20T17:16:27;3.00;99.90
7704;DHT22;3894;49.700;10.770;2022-11-20T17:18:54;2.90;99.90
7704;DHT22;3894;49.700;10.770;2022-11-20T17:21:20;2.90;99.90
7704;DHT22;3894;49.700;10.770;2022-11-20T17:23:46;2.90;99.90
7704;DHT22;3894;49.700;10.770;2022-11-20T17:26:17;2.90;99.90
7704;DHT22;3894;49.700;10.770;2022-11-20T17:28:51;2.90;99.90
7704;DHT22;3894;49.700;10.770;2022-11-20T17:31:17;2.90;99.90
7704;DHT22;3894;49.700;10.770;2022-11-20T17:33:44;2.90;99.90
7704;DHT22;3894;49.700;10.770;2022-11-20T17:36:12;2.90;99.90
7704;DHT22;3894;49.700;10.770;2022-11-20T17:38:38;2.90;99.90
7704;DHT22;3894;49.700;10.770;2022-11-20T17:41:08;2.90;99.90